sensor_id;sensor_type;location;lat;lon;timestamp;P1;durP1;ratioP1;P2;durP2;ratioP2
49235;SDS011;35067;48.134;8.378;2023-05-23T00:00:00;18.30;;;12.53;;
49235;SDS011;35067;48.134;8.378;2023-05-23T00:01:01;18.02;;;12.30;;
49235;SDS011;35067;48.134;8.378;2023-05-23T00:02:02;19.33;;;12.67;;
49235;SDS011;35067;48.134;8.378;2023-05-23T00:03:07;16.63;;;11.73;;
49235;SDS011;35067;48.134;8.378;2023-05-23T00:04:09;16.77;;;11.60;;
49235;SDS011;35067;48.134;8.378;2023-05-23T00:05:16;17.48;;;12.68;;
49235;SDS011;35067;48.134;8.378;2023-05-23T00:06:18;17.37;;;12.27;;
49235;SDS011;35067;48.134;8.378;2023-05-23T00:07:22;18.02;;;11.98;;
49235;SDS011;35067;48.134;8.378;2023-05-23T00:08:24;18.13;;;12.50;;
49235;SDS011;35067;48.134;8.378;2023-05-23T00:09:25;18.40;;;12.37;;
49235;SDS011;35067;48.134;8.378;2023-05-23T00:10:26;17.02;;;11.60;;
49235;SDS011;35067;48.134;8.378;2023-05-23T00:11:27;18.23;;;12.73;;
49235;SDS011;35067;48.134;8.378;2023-05-23T00:12:28;18.73;;;12.33;;
49235;SDS011;35067;48.134;8.378;2023-05-23T00:13:28;15.80;;;11.47;;
49235;SDS011;35067;48.134;8.378;2023-05-23T00:14:32;19.02;;;11.93;;
49235;SDS011;35067;48.134;8.378;2023-05-23T00:15:35;17.75;;;11.98;;
49235;SDS011;35067;48.134;8.378;2023-05-23T00:16:36;18.48;;;12.13;;
49235;SDS011;35067;48.134;8.378;2023-05-23T00:17:40;16.45;;;11.48;;
49235;SDS011;35067;48.134;8.378;2023-05-23T00:18:41;19.52;;;12.70;;
49235;SDS011;35067;48.134;8.378;2023-05-23T00:19:44;16.30;;;12.20;;
49235;SDS011;35067;48.134;8.378;2023-05-23T00:20:45;20.53;;;12.27;;
49235;SDS011;35067;48.134;8.378;2023-05-23T00:21:46;19.63;;;13.03;;
49235;SDS011;35067;48.134;8.378;2023-05-23T00:22:47;22.27;;;12.38;;
49235;SDS011;35067;48.134;8.378;2023-05-23T00:23:48;17.67;;;12.10;;
49235;SDS011;35067;48.134;8.378;2023-05-23T00:24:49;18.10;;;12.60;;
49235;SDS011;35067;48.134;8.378;2023-05-23T00:25:50;25.07;;;12.97;;
49235;SDS011;35067;48.134;8.378;2023-05-23T00:26:54;20.65;;;13.25;;
49235;SDS011;35067;48.134;8.378;2023-05-23T00:27:55;20.17;;;12.37;;
49235;SDS011;35067;48.134;8.378;2023-05-23T00:28:56;16.47;;;11.60;;
49235;SDS011;35067;48.134;8.378;2023-05-23T00:29:57;19.35;;;11.82;;
49235;SDS011;35067;48.134;8.378;2023-05-23T00:30:58;20.27;;;13.53;;
49235;SDS011;35067;48.134;8.378;2023-05-23T00:31:59;19.47;;;12.83;;
49235;SDS011;35067;48.134;8.378;2023-05-23T00:32:59;17.70;;;12.83;;
49235;SDS011;35067;48.134;8.378;2023-05-23T00:34:02;20.48;;;13.60;;
49235;SDS011;35067;48.134;8.378;2023-05-23T00:35:02;17.63;;;12.53;;
49235;SDS011;35067;48.134;8.378;2023-05-23T00:36:04;21.85;;;13.00;;
49235;SDS011;35067;48.134;8.378;2023-05-23T00:37:05;16.77;;;12.05;;
49235;SDS011;35067;48.134;8.378;2023-05-23T00:38:07;18.15;;;12.75;;
49235;SDS011;35067;48.134;8.378;2023-05-23T00:39:07;21.27;;;12.53;;
49235;SDS011;35067;48.134;8.378;2023-05-23T00:40:09;19.90;;;12.75;;
49235;SDS011;35067;48.134;8.378;2023-05-23T00:41:10;23.80;;;14.27;;
49235;SDS011;35067;48.134;8.378;2023-05-23T00:42:11;21.07;;;13.03;;
49235;SDS011;35067;48.134;8.378;2023-05-23T00:43:13;16.80;;;11.90;;
49235;SDS011;35067;48.134;8.378;2023-05-23T00:44:16;17.23;;;11.32;;
49235;SDS011;35067;48.134;8.378;2023-05-23T00:45:18;15.43;;;10.90;;
49235;SDS011;35067;48.134;8.378;2023-05-23T00:46:19;18.85;;;12.13;;
49235;SDS011;35067;48.134;8.378;2023-05-23T00:47:20;21.43;;;12.43;;
49235;SDS011;35067;48.134;8.378;2023-05-23T00:48:21;17.00;;;11.10;;
49235;SDS011;35067;48.134;8.378;2023-05-23T00:49:24;17.83;;;11.95;;
49235;SDS011;35067;48.134;8.378;2023-05-23T00:50:26;16.73;;;11.25;;
49235;SDS011;35067;48.134;8.378;2023-05-23T00:51:28;16.95;;;11.95;;
49235;SDS011;35067;48.134;8.378;2023-05-23T00:52:30;17.38;;;11.93;;
49235;SDS011;35067;48.134;8.378;2023-05-23T00:53:32;20.15;;;12.48;;
49235;SDS011;35067;48.134;8.378;2023-05-23T00:54:34;17.27;;;11.52;;
49235;SDS011;35067;48.134;8.378;2023-05-23T00:55:36;21.67;;;12.60;;
49235;SDS011;35067;48.134;8.378;2023-05-23T00:56:38;18.23;;;12.32;;
49235;SDS011;35067;48.134;8.378;2023-05-23T00:57:39;22.17;;;13.27;;
49235;SDS011;35067;48.134;8.378;2023-05-23T00:58:43;21.75;;;13.82;;
49235;SDS011;35067;48.134;8.378;2023-05-23T00:59:44;21.43;;;13.60;;
49235;SDS011;35067;48.134;8.378;2023-05-23T01:00:46;18.90;;;12.52;;
49235;SDS011;35067;48.134;8.378;2023-05-23T01:01:49;19.42;;;12.70;;
49235;SDS011;35067;48.134;8.378;2023-05-23T01:02:51;21.48;;;14.55;;
49235;SDS011;35067;48.134;8.378;2023-05-23T01:03:52;19.50;;;12.83;;
49235;SDS011;35067;48.134;8.378;2023-05-23T01:04:54;20.20;;;12.80;;
49235;SDS011;35067;48.134;8.378;2023-05-23T01:05:55;19.75;;;13.35;;
49235;SDS011;35067;48.134;8.378;2023-05-23T01:06:56;19.93;;;12.90;;
49235;SDS011;35067;48.134;8.378;2023-05-23T01:07:57;19.60;;;12.77;;
49235;SDS011;35067;48.134;8.378;2023-05-23T01:08:58;24.70;;;14.27;;
49235;SDS011;35067;48.134;8.378;2023-05-23T01:10:02;20.83;;;12.52;;
49235;SDS011;35067;48.134;8.378;2023-05-23T01:11:05;21.02;;;13.02;;
49235;SDS011;35067;48.134;8.378;2023-05-23T01:12:21;20.60;;;13.45;;
49235;SDS011;35067;48.134;8.378;2023-05-23T01:16:05;21.98;;;13.65;;
49235;SDS011;35067;48.134;8.378;2023-05-23T01:17:14;22.38;;;14.43;;
49235;SDS011;35067;48.134;8.378;2023-05-23T01:18:34;21.38;;;13.65;;
49235;SDS011;35067;48.134;8.378;2023-05-23T01:19:59;21.38;;;12.25;;
49235;SDS011;35067;48.134;8.378;2023-05-23T01:21:11;21.50;;;13.98;;
49235;SDS011;35067;48.134;8.378;2023-05-23T01:23:01;22.75;;;14.50;;
49235;SDS011;35067;48.134;8.378;2023-05-23T01:24:17;23.25;;;14.73;;
49235;SDS011;35067;48.134;8.378;2023-05-23T01:27:08;22.17;;;13.98;;
49235;SDS011;35067;48.134;8.378;2023-05-23T01:28:45;21.02;;;12.88;;
49235;SDS011;35067;48.134;8.378;2023-05-23T01:29:51;23.75;;;14.05;;
49235;SDS011;35067;48.134;8.378;2023-05-23T01:30:57;22.65;;;14.63;;
49235;SDS011;35067;48.134;8.378;2023-05-23T01:32:01;22.90;;;13.98;;
49235;SDS011;35067;48.134;8.378;2023-05-23T01:33:06;20.10;;;13.05;;
49235;SDS011;35067;48.134;8.378;2023-05-23T01:34:09;20.48;;;13.52;;
49235;SDS011;35067;48.134;8.378;2023-05-23T01:35:11;26.08;;;15.57;;
49235;SDS011;35067;48.134;8.378;2023-05-23T01:36:19;23.05;;;15.15;;
49235;SDS011;35067;48.134;8.378;2023-05-23T01:37:20;21.00;;;13.85;;
49235;SDS011;35067;48.134;8.378;2023-05-23T01:38:21;23.50;;;13.47;;
49235;SDS011;35067;48.134;8.378;2023-05-23T01:39:22;23.73;;;14.77;;
49235;SDS011;35067;48.134;8.378;2023-05-23T01:40:23;24.77;;;14.90;;
49235;SDS011;35067;48.134;8.378;2023-05-23T01:41:24;24.05;;;15.93;;
49235;SDS011;35067;48.134;8.378;2023-05-23T01:42:25;23.60;;;14.40;;
49235;SDS011;35067;48.134;8.378;2023-05-23T01:43:27;23.80;;;15.68;;
49235;SDS011;35067;48.134;8.378;2023-05-23T01:44:28;19.75;;;13.70;;
49235;SDS011;35067;48.134;8.378;2023-05-23T01:45:30;24.27;;;15.40;;
49235;SDS011;35067;48.134;8.378;2023-05-23T01:46:32;23.98;;;14.57;;
49235;SDS011;35067;48.134;8.378;2023-05-23T01:47:35;24.70;;;15.38;;
49235;SDS011;35067;48.134;8.378;2023-05-23T01:48:37;28.00;;;15.98;;
49235;SDS011;35067;48.134;8.378;2023-05-23T01:49:39;24.98;;;15.20;;
49235;SDS011;35067;48.134;8.378;2023-05-23T01:50:41;23.63;;;15.32;;
49235;SDS011;35067;48.134;8.378;2023-05-23T01:51:46;24.25;;;14.48;;
49235;SDS011;35067;48.134;8.378;2023-05-23T01:52:47;23.00;;;14.95;;
49235;SDS011;35067;48.134;8.378;2023-05-23T01:53:49;24.42;;;14.77;;
49235;SDS011;35067;48.134;8.378;2023-05-23T01:54:50;26.80;;;16.03;;
49235;SDS011;35067;48.134;8.378;2023-05-23T01:55:52;23.27;;;15.63;;
49235;SDS011;35067;48.134;8.378;2023-05-23T01:56:56;23.92;;;14.82;;
49235;SDS011;35067;48.134;8.378;2023-05-23T01:57:57;22.35;;;15.32;;
49235;SDS011;35067;48.134;8.378;2023-05-23T01:58:59;24.75;;;15.52;;
49235;SDS011;35067;48.134;8.378;2023-05-23T02:00:01;26.13;;;16.10;;
49235;SDS011;35067;48.134;8.378;2023-05-23T02:01:05;23.95;;;14.90;;
49235;SDS011;35067;48.134;8.378;2023-05-23T02:02:06;25.67;;;16.07;;
49235;SDS011;35067;48.134;8.378;2023-05-23T02:03:08;24.40;;;14.52;;
49235;SDS011;35067;48.134;8.378;2023-05-23T02:04:10;24.80;;;15.40;;
49235;SDS011;35067;48.134;8.378;2023-05-23T02:05:11;22.00;;;15.03;;
49235;SDS011;35067;48.134;8.378;2023-05-23T02:06:12;22.93;;;15.47;;
49235;SDS011;35067;48.134;8.378;2023-05-23T02:07:12;21.23;;;15.00;;
49235;SDS011;35067;48.134;8.378;2023-05-23T02:08:14;19.95;;;13.73;;
49235;SDS011;35067;48.134;8.378;2023-05-23T02:09:14;22.70;;;14.50;;
49235;SDS011;35067;48.134;8.378;2023-05-23T02:10:18;21.73;;;14.25;;
49235;SDS011;35067;48.134;8.378;2023-05-23T02:11:20;22.95;;;17.65;;
49235;SDS011;35067;48.134;8.378;2023-05-23T02:12:21;21.38;;;16.08;;
49235;SDS011;35067;48.134;8.378;2023-05-23T02:13:22;20.87;;;14.27;;
49235;SDS011;35067;48.134;8.378;2023-05-23T02:14:23;23.00;;;14.43;;
49235;SDS011;35067;48.134;8.378;2023-05-23T02:15:25;18.95;;;13.23;;
49235;SDS011;35067;48.134;8.378;2023-05-23T02:16:26;21.25;;;14.60;;
49235;SDS011;35067;48.134;8.378;2023-05-23T02:17:27;19.47;;;13.13;;
49235;SDS011;35067;48.134;8.378;2023-05-23T02:18:27;19.97;;;13.70;;
49235;SDS011;35067;48.134;8.378;2023-05-23T02:19:29;21.02;;;13.82;;
49235;SDS011;35067;48.134;8.378;2023-05-23T02:20:30;22.33;;;14.57;;
49235;SDS011;35067;48.134;8.378;2023-05-23T02:21:31;21.83;;;13.90;;
49235;SDS011;35067;48.134;8.378;2023-05-23T02:22:31;20.90;;;13.93;;
49235;SDS011;35067;48.134;8.378;2023-05-23T02:23:32;21.60;;;13.77;;
49235;SDS011;35067;48.134;8.378;2023-05-23T02:24:33;20.42;;;13.75;;
49235;SDS011;35067;48.134;8.378;2023-05-23T02:25:34;22.07;;;13.33;;
49235;SDS011;35067;48.134;8.378;2023-05-23T02:26:35;20.70;;;13.27;;
49235;SDS011;35067;48.134;8.378;2023-05-23T02:27:36;21.20;;;12.80;;
49235;SDS011;35067;48.134;8.378;2023-05-23T02:28:36;20.57;;;14.50;;
49235;SDS011;35067;48.134;8.378;2023-05-23T02:29:37;23.10;;;14.30;;
49235;SDS011;35067;48.134;8.378;2023-05-23T02:30:38;23.17;;;13.90;;
49235;SDS011;35067;48.134;8.378;2023-05-23T02:31:39;21.33;;;14.13;;
49235;SDS011;35067;48.134;8.378;2023-05-23T02:32:39;23.47;;;13.17;;
49235;SDS011;35067;48.134;8.378;2023-05-23T02:33:41;23.35;;;14.43;;
49235;SDS011;35067;48.134;8.378;2023-05-23T02:34:42;19.37;;;13.77;;
49235;SDS011;35067;48.134;8.378;2023-05-23T02:35:45;18.65;;;12.52;;
49235;SDS011;35067;48.134;8.378;2023-05-23T02:36:46;19.63;;;12.68;;
49235;SDS011;35067;48.134;8.378;2023-05-23T02:37:47;19.60;;;11.70;;
49235;SDS011;35067;48.134;8.378;2023-05-23T02:38:48;20.23;;;13.10;;
49235;SDS011;35067;48.134;8.378;2023-05-23T02:39:48;20.23;;;12.93;;
49235;SDS011;35067;48.134;8.378;2023-05-23T02:40:49;22.93;;;12.17;;
49235;SDS011;35067;48.134;8.378;2023-05-23T02:41:51;18.17;;;12.25;;
49235;SDS011;35067;48.134;8.378;2023-05-23T02:42:52;17.07;;;12.80;;
49235;SDS011;35067;48.134;8.378;2023-05-23T02:43:53;20.77;;;12.30;;
49235;SDS011;35067;48.134;8.378;2023-05-23T02:44:53;22.83;;;13.40;;
49235;SDS011;35067;48.134;8.378;2023-05-23T02:45:54;19.07;;;12.83;;
49235;SDS011;35067;48.134;8.378;2023-05-23T02:46:55;19.53;;;13.47;;
49235;SDS011;35067;48.134;8.378;2023-05-23T02:47:56;19.90;;;12.50;;
49235;SDS011;35067;48.134;8.378;2023-05-23T02:48:56;19.13;;;13.13;;
49235;SDS011;35067;48.134;8.378;2023-05-23T02:49:57;24.47;;;14.57;;
49235;SDS011;35067;48.134;8.378;2023-05-23T02:50:58;23.43;;;14.70;;
49235;SDS011;35067;48.134;8.378;2023-05-23T02:51:58;21.23;;;12.90;;
49235;SDS011;35067;48.134;8.378;2023-05-23T02:53:00;26.25;;;15.65;;
49235;SDS011;35067;48.134;8.378;2023-05-23T02:54:01;28.33;;;15.35;;
49235;SDS011;35067;48.134;8.378;2023-05-23T02:55:02;27.67;;;17.17;;
49235;SDS011;35067;48.134;8.378;2023-05-23T02:56:03;24.50;;;14.63;;
49235;SDS011;35067;48.134;8.378;2023-05-23T02:57:04;28.20;;;16.27;;
49235;SDS011;35067;48.134;8.378;2023-05-23T02:58:05;28.63;;;16.00;;
49235;SDS011;35067;48.134;8.378;2023-05-23T02:59:06;25.50;;;15.50;;
49235;SDS011;35067;48.134;8.378;2023-05-23T03:00:07;25.70;;;15.43;;
49235;SDS011;35067;48.134;8.378;2023-05-23T03:01:09;29.42;;;17.15;;
49235;SDS011;35067;48.134;8.378;2023-05-23T03:02:11;28.75;;;16.75;;
49235;SDS011;35067;48.134;8.378;2023-05-23T03:03:11;29.00;;;17.00;;
49235;SDS011;35067;48.134;8.378;2023-05-23T03:04:12;29.70;;;17.57;;
49235;SDS011;35067;48.134;8.378;2023-05-23T03:05:13;29.50;;;16.87;;
49235;SDS011;35067;48.134;8.378;2023-05-23T03:06:14;26.00;;;14.77;;
49235;SDS011;35067;48.134;8.378;2023-05-23T03:07:15;27.08;;;16.42;;
49235;SDS011;35067;48.134;8.378;2023-05-23T03:08:17;29.42;;;17.35;;
49235;SDS011;35067;48.134;8.378;2023-05-23T03:09:18;30.03;;;16.10;;
49235;SDS011;35067;48.134;8.378;2023-05-23T03:10:19;28.48;;;16.13;;
49235;SDS011;35067;48.134;8.378;2023-05-23T03:11:20;30.13;;;16.53;;
49235;SDS011;35067;48.134;8.378;2023-05-23T03:12:21;31.92;;;16.67;;
49235;SDS011;35067;48.134;8.378;2023-05-23T03:13:22;27.27;;;16.40;;
49235;SDS011;35067;48.134;8.378;2023-05-23T03:14:23;30.40;;;17.60;;
49235;SDS011;35067;48.134;8.378;2023-05-23T03:15:23;25.03;;;16.70;;
49235;SDS011;35067;48.134;8.378;2023-05-23T03:16:24;31.13;;;18.03;;
49235;SDS011;35067;48.134;8.378;2023-05-23T03:17:25;31.20;;;17.67;;
49235;SDS011;35067;48.134;8.378;2023-05-23T03:18:26;29.13;;;17.50;;
49235;SDS011;35067;48.134;8.378;2023-05-23T03:19:26;32.97;;;18.17;;
49235;SDS011;35067;48.134;8.378;2023-05-23T03:20:27;31.93;;;18.73;;
49235;SDS011;35067;48.134;8.378;2023-05-23T03:21:28;29.30;;;16.27;;
49235;SDS011;35067;48.134;8.378;2023-05-23T03:22:30;30.85;;;17.80;;
49235;SDS011;35067;48.134;8.378;2023-05-23T03:23:30;29.47;;;16.70;;
49235;SDS011;35067;48.134;8.378;2023-05-23T03:24:31;33.07;;;17.40;;
49235;SDS011;35067;48.134;8.378;2023-05-23T03:25:32;32.23;;;18.90;;
49235;SDS011;35067;48.134;8.378;2023-05-23T03:26:33;31.17;;;18.27;;
49235;SDS011;35067;48.134;8.378;2023-05-23T03:27:33;33.73;;;18.07;;
49235;SDS011;35067;48.134;8.378;2023-05-23T03:28:34;31.65;;;16.77;;
49235;SDS011;35067;48.134;8.378;2023-05-23T03:29:35;34.33;;;18.67;;
49235;SDS011;35067;48.134;8.378;2023-05-23T03:30:36;29.83;;;16.33;;
49235;SDS011;35067;48.134;8.378;2023-05-23T03:31:37;30.52;;;17.30;;
49235;SDS011;35067;48.134;8.378;2023-05-23T03:32:38;37.67;;;19.00;;
49235;SDS011;35067;48.134;8.378;2023-05-23T03:33:38;35.37;;;17.33;;
49235;SDS011;35067;48.134;8.378;2023-05-23T03:34:39;31.67;;;16.77;;
49235;SDS011;35067;48.134;8.378;2023-05-23T03:35:40;31.40;;;17.37;;
49235;SDS011;35067;48.134;8.378;2023-05-23T03:36:41;34.07;;;17.70;;
49235;SDS011;35067;48.134;8.378;2023-05-23T03:37:42;27.67;;;16.20;;
49235;SDS011;35067;48.134;8.378;2023-05-23T03:38:42;24.73;;;15.43;;
49235;SDS011;35067;48.134;8.378;2023-05-23T03:39:43;24.17;;;13.70;;
49235;SDS011;35067;48.134;8.378;2023-05-23T03:40:44;19.37;;;13.50;;
49235;SDS011;35067;48.134;8.378;2023-05-23T03:41:46;24.13;;;13.88;;
49235;SDS011;35067;48.134;8.378;2023-05-23T03:42:47;24.02;;;13.80;;
49235;SDS011;35067;48.134;8.378;2023-05-23T03:44:01;23.00;;;13.98;;
49235;SDS011;35067;48.134;8.378;2023-05-23T03:45:02;26.67;;;16.52;;
49235;SDS011;35067;48.134;8.378;2023-05-23T03:46:03;39.28;;;20.92;;
49235;SDS011;35067;48.134;8.378;2023-05-23T03:47:04;29.83;;;17.23;;
49235;SDS011;35067;48.134;8.378;2023-05-23T03:48:05;30.45;;;17.23;;
49235;SDS011;35067;48.134;8.378;2023-05-23T03:49:06;33.50;;;17.60;;
49235;SDS011;35067;48.134;8.378;2023-05-23T03:50:07;31.07;;;17.27;;
49235;SDS011;35067;48.134;8.378;2023-05-23T03:51:08;28.13;;;17.52;;
49235;SDS011;35067;48.134;8.378;2023-05-23T03:52:09;34.20;;;18.17;;
49235;SDS011;35067;48.134;8.378;2023-05-23T03:53:10;31.58;;;18.45;;
49235;SDS011;35067;48.134;8.378;2023-05-23T03:54:10;32.87;;;18.00;;
49235;SDS011;35067;48.134;8.378;2023-05-23T03:55:11;31.47;;;18.83;;
49235;SDS011;35067;48.134;8.378;2023-05-23T03:56:12;33.33;;;18.67;;
49235;SDS011;35067;48.134;8.378;2023-05-23T03:57:13;35.37;;;19.07;;
49235;SDS011;35067;48.134;8.378;2023-05-23T03:58:13;31.67;;;18.53;;
49235;SDS011;35067;48.134;8.378;2023-05-23T03:59:14;36.27;;;19.50;;
49235;SDS011;35067;48.134;8.378;2023-05-23T04:00:15;36.03;;;19.17;;
49235;SDS011;35067;48.134;8.378;2023-05-23T04:01:16;39.78;;;20.80;;
49235;SDS011;35067;48.134;8.378;2023-05-23T04:02:18;41.60;;;20.67;;
49235;SDS011;35067;48.134;8.378;2023-05-23T04:03:19;37.28;;;19.08;;
49235;SDS011;35067;48.134;8.378;2023-05-23T04:04:20;37.67;;;20.10;;
49235;SDS011;35067;48.134;8.378;2023-05-23T04:05:21;36.03;;;19.87;;
49235;SDS011;35067;48.134;8.378;2023-05-23T04:06:21;36.93;;;20.13;;
49235;SDS011;35067;48.134;8.378;2023-05-23T04:07:22;33.93;;;18.67;;
49235;SDS011;35067;48.134;8.378;2023-05-23T04:08:26;32.58;;;17.80;;
49235;SDS011;35067;48.134;8.378;2023-05-23T04:09:28;33.22;;;17.98;;
49235;SDS011;35067;48.134;8.378;2023-05-23T04:10:29;32.50;;;18.70;;
49235;SDS011;35067;48.134;8.378;2023-05-23T04:11:29;36.97;;;19.30;;
49235;SDS011;35067;48.134;8.378;2023-05-23T04:12:32;28.30;;;17.67;;
49235;SDS011;35067;48.134;8.378;2023-05-23T04:13:33;35.47;;;18.67;;
49235;SDS011;35067;48.134;8.378;2023-05-23T04:14:34;30.50;;;17.77;;
49235;SDS011;35067;48.134;8.378;2023-05-23T04:15:36;35.47;;;19.52;;
49235;SDS011;35067;48.134;8.378;2023-05-23T04:16:38;32.58;;;17.50;;
49235;SDS011;35067;48.134;8.378;2023-05-23T04:17:40;29.33;;;18.15;;
49235;SDS011;35067;48.134;8.378;2023-05-23T04:18:42;30.03;;;17.70;;
49235;SDS011;35067;48.134;8.378;2023-05-23T04:19:46;33.65;;;19.77;;
49235;SDS011;35067;48.134;8.378;2023-05-23T04:20:48;31.38;;;18.50;;
49235;SDS011;35067;48.134;8.378;2023-05-23T04:21:49;33.45;;;18.88;;
49235;SDS011;35067;48.134;8.378;2023-05-23T04:22:50;26.10;;;17.33;;
49235;SDS011;35067;48.134;8.378;2023-05-23T04:23:51;30.70;;;17.40;;
49235;SDS011;35067;48.134;8.378;2023-05-23T04:24:52;29.35;;;17.20;;
49235;SDS011;35067;48.134;8.378;2023-05-23T04:25:53;30.87;;;17.80;;
49235;SDS011;35067;48.134;8.378;2023-05-23T04:26:54;28.27;;;17.33;;
49235;SDS011;35067;48.134;8.378;2023-05-23T04:27:56;30.15;;;17.88;;
49235;SDS011;35067;48.134;8.378;2023-05-23T04:28:58;31.77;;;17.58;;
49235;SDS011;35067;48.134;8.378;2023-05-23T04:29:59;29.90;;;17.87;;
49235;SDS011;35067;48.134;8.378;2023-05-23T04:31:00;33.07;;;18.83;;
49235;SDS011;35067;48.134;8.378;2023-05-23T04:32:02;29.80;;;16.67;;
49235;SDS011;35067;48.134;8.378;2023-05-23T04:33:05;30.97;;;18.17;;
49235;SDS011;35067;48.134;8.378;2023-05-23T04:34:06;30.33;;;18.07;;
49235;SDS011;35067;48.134;8.378;2023-05-23T04:35:07;28.77;;;16.60;;
49235;SDS011;35067;48.134;8.378;2023-05-23T04:36:08;27.83;;;16.87;;
49235;SDS011;35067;48.134;8.378;2023-05-23T04:37:09;29.97;;;17.30;;
49235;SDS011;35067;48.134;8.378;2023-05-23T04:38:10;26.83;;;16.73;;
49235;SDS011;35067;48.134;8.378;2023-05-23T04:39:12;29.67;;;16.70;;
49235;SDS011;35067;48.134;8.378;2023-05-23T04:40:14;34.97;;;18.40;;
49235;SDS011;35067;48.134;8.378;2023-05-23T04:41:16;25.53;;;15.87;;
49235;SDS011;35067;48.134;8.378;2023-05-23T04:42:22;31.00;;;17.57;;
49235;SDS011;35067;48.134;8.378;2023-05-23T04:43:23;32.27;;;17.67;;
49235;SDS011;35067;48.134;8.378;2023-05-23T04:44:25;27.97;;;17.03;;
49235;SDS011;35067;48.134;8.378;2023-05-23T04:45:29;28.93;;;17.70;;
49235;SDS011;35067;48.134;8.378;2023-05-23T04:46:29;30.03;;;17.23;;
49235;SDS011;35067;48.134;8.378;2023-05-23T04:47:30;24.87;;;16.13;;
49235;SDS011;35067;48.134;8.378;2023-05-23T04:48:33;21.70;;;14.73;;
49235;SDS011;35067;48.134;8.378;2023-05-23T04:49:36;19.07;;;11.60;;
49235;SDS011;35067;48.134;8.378;2023-05-23T04:50:37;15.43;;;11.50;;
49235;SDS011;35067;48.134;8.378;2023-05-23T04:51:39;18.03;;;11.87;;
49235;SDS011;35067;48.134;8.378;2023-05-23T04:52:40;19.83;;;12.67;;
49235;SDS011;35067;48.134;8.378;2023-05-23T04:53:41;22.03;;;13.73;;
49235;SDS011;35067;48.134;8.378;2023-05-23T04:54:42;21.67;;;13.87;;
49235;SDS011;35067;48.134;8.378;2023-05-23T04:55:45;17.70;;;11.87;;
49235;SDS011;35067;48.134;8.378;2023-05-23T04:56:46;21.03;;;13.97;;
49235;SDS011;35067;48.134;8.378;2023-05-23T04:57:46;19.07;;;12.73;;
49235;SDS011;35067;48.134;8.378;2023-05-23T04:58:47;17.37;;;11.60;;
49235;SDS011;35067;48.134;8.378;2023-05-23T04:59:48;22.50;;;13.77;;
49235;SDS011;35067;48.134;8.378;2023-05-23T05:00:49;25.27;;;15.60;;
49235;SDS011;35067;48.134;8.378;2023-05-23T05:01:49;24.13;;;14.67;;
49235;SDS011;35067;48.134;8.378;2023-05-23T05:02:50;24.37;;;15.80;;
49235;SDS011;35067;48.134;8.378;2023-05-23T05:03:51;29.07;;;16.40;;
49235;SDS011;35067;48.134;8.378;2023-05-23T05:04:53;26.70;;;16.53;;
49235;SDS011;35067;48.134;8.378;2023-05-23T05:05:53;28.47;;;16.20;;
49235;SDS011;35067;48.134;8.378;2023-05-23T05:06:55;29.13;;;16.33;;
49235;SDS011;35067;48.134;8.378;2023-05-23T05:07:56;28.47;;;16.17;;
49235;SDS011;35067;48.134;8.378;2023-05-23T05:08:57;31.33;;;18.40;;
49235;SDS011;35067;48.134;8.378;2023-05-23T05:09:57;28.90;;;17.53;;
49235;SDS011;35067;48.134;8.378;2023-05-23T05:10:58;30.63;;;18.47;;
49235;SDS011;35067;48.134;8.378;2023-05-23T05:11:59;29.90;;;17.40;;
49235;SDS011;35067;48.134;8.378;2023-05-23T05:13:00;28.53;;;16.20;;
49235;SDS011;35067;48.134;8.378;2023-05-23T05:14:00;30.93;;;17.03;;
49235;SDS011;35067;48.134;8.378;2023-05-23T05:15:02;28.87;;;16.13;;
49235;SDS011;35067;48.134;8.378;2023-05-23T05:16:03;29.03;;;16.90;;
49235;SDS011;35067;48.134;8.378;2023-05-23T05:17:04;27.63;;;16.47;;
49235;SDS011;35067;48.134;8.378;2023-05-23T05:18:05;31.53;;;17.23;;
49235;SDS011;35067;48.134;8.378;2023-05-23T05:19:06;26.70;;;16.83;;
49235;SDS011;35067;48.134;8.378;2023-05-23T05:20:07;28.73;;;16.77;;
49235;SDS011;35067;48.134;8.378;2023-05-23T05:21:09;31.97;;;19.07;;
49235;SDS011;35067;48.134;8.378;2023-05-23T05:22:10;32.07;;;17.47;;
49235;SDS011;35067;48.134;8.378;2023-05-23T05:23:11;29.57;;;17.60;;
49235;SDS011;35067;48.134;8.378;2023-05-23T05:24:12;30.50;;;16.77;;
49235;SDS011;35067;48.134;8.378;2023-05-23T05:25:13;29.73;;;18.37;;
49235;SDS011;35067;48.134;8.378;2023-05-23T05:26:13;29.40;;;17.03;;
49235;SDS011;35067;48.134;8.378;2023-05-23T05:27:14;29.10;;;17.93;;
49235;SDS011;35067;48.134;8.378;2023-05-23T05:28:15;25.67;;;16.67;;
49235;SDS011;35067;48.134;8.378;2023-05-23T05:29:16;27.50;;;16.97;;
49235;SDS011;35067;48.134;8.378;2023-05-23T05:30:16;28.60;;;16.97;;
49235;SDS011;35067;48.134;8.378;2023-05-23T05:31:17;29.80;;;17.40;;
49235;SDS011;35067;48.134;8.378;2023-05-23T05:32:18;29.53;;;17.30;;
49235;SDS011;35067;48.134;8.378;2023-05-23T05:33:20;24.37;;;15.57;;
49235;SDS011;35067;48.134;8.378;2023-05-23T05:34:22;27.87;;;15.80;;
49235;SDS011;35067;48.134;8.378;2023-05-23T05:35:23;25.37;;;15.10;;
49235;SDS011;35067;48.134;8.378;2023-05-23T05:36:24;25.70;;;15.17;;
49235;SDS011;35067;48.134;8.378;2023-05-23T05:37:24;29.80;;;17.50;;
49235;SDS011;35067;48.134;8.378;2023-05-23T05:38:25;25.37;;;16.23;;
49235;SDS011;35067;48.134;8.378;2023-05-23T05:39:26;27.57;;;17.30;;
49235;SDS011;35067;48.134;8.378;2023-05-23T05:40:27;23.87;;;15.70;;
49235;SDS011;35067;48.134;8.378;2023-05-23T05:41:28;25.27;;;15.93;;
49235;SDS011;35067;48.134;8.378;2023-05-23T05:42:29;25.47;;;16.13;;
49235;SDS011;35067;48.134;8.378;2023-05-23T05:43:29;26.47;;;15.97;;
49235;SDS011;35067;48.134;8.378;2023-05-23T05:44:30;25.90;;;15.53;;
49235;SDS011;35067;48.134;8.378;2023-05-23T05:45:31;25.90;;;15.83;;
49235;SDS011;35067;48.134;8.378;2023-05-23T05:46:31;23.33;;;14.97;;
49235;SDS011;35067;48.134;8.378;2023-05-23T05:47:32;23.53;;;15.27;;
49235;SDS011;35067;48.134;8.378;2023-05-23T05:48:33;25.17;;;15.33;;
49235;SDS011;35067;48.134;8.378;2023-05-23T05:49:34;25.23;;;15.57;;
49235;SDS011;35067;48.134;8.378;2023-05-23T05:50:36;25.73;;;15.50;;
49235;SDS011;35067;48.134;8.378;2023-05-23T05:51:37;24.33;;;15.40;;
49235;SDS011;35067;48.134;8.378;2023-05-23T05:52:38;25.37;;;17.07;;
49235;SDS011;35067;48.134;8.378;2023-05-23T05:53:41;29.10;;;16.53;;
49235;SDS011;35067;48.134;8.378;2023-05-23T05:54:41;27.03;;;16.10;;
49235;SDS011;35067;48.134;8.378;2023-05-23T05:55:42;27.50;;;16.77;;
49235;SDS011;35067;48.134;8.378;2023-05-23T05:56:43;22.90;;;15.60;;
49235;SDS011;35067;48.134;8.378;2023-05-23T05:57:44;25.13;;;15.67;;
49235;SDS011;35067;48.134;8.378;2023-05-23T05:58:44;24.10;;;15.60;;
49235;SDS011;35067;48.134;8.378;2023-05-23T05:59:45;24.33;;;15.73;;
49235;SDS011;35067;48.134;8.378;2023-05-23T06:00:46;28.27;;;17.30;;
49235;SDS011;35067;48.134;8.378;2023-05-23T06:01:47;22.47;;;15.23;;
49235;SDS011;35067;48.134;8.378;2023-05-23T06:02:52;25.03;;;15.40;;
49235;SDS011;35067;48.134;8.378;2023-05-23T06:03:56;24.80;;;16.20;;
49235;SDS011;35067;48.134;8.378;2023-05-23T06:04:57;26.10;;;16.57;;
49235;SDS011;35067;48.134;8.378;2023-05-23T06:05:58;25.07;;;15.50;;